Nearby METAR Reports

 

KPRB - Paso Robles, California, USA
Distance from station: SW 1mi, 1km
Updated: 04/17/2015 11:53pm
Clear
Clear
 Wind from WNW
Wind: WNW 7 mph , 11 km/h
Temperature: 57°F , 14°C
Dew Point: 30°F , -1°C
Humidity: 36%
Barometer: 30.06 inHg , 1017.9 hPa
Clouds: Clear
Visibility: 10 miles , 16 km
2015/04/18 06:53 KPRB 180653Z AUTO 29006KT 10SM CLR 14/M01 A3006 RMK AO2 SLP175 T01391006 TSNO
KSBP - San Luis Obispo, California, USA
Distance from station: S 30mi, 49km
Updated: 04/17/2015 11:56pm
Clear
Clear
 Wind from calm
Wind: Calm
Temperature: 52°F , 11°C
Dew Point: 43°F , 6°C
Humidity: 72%
Barometer: 30.07 inHg , 1018.3 hPa
Clouds: Clear
Visibility: 10 miles , 16 km
2015/04/18 06:56 KSBP 180656Z AUTO 00000KT 10SM CLR 11/06 A3007 RMK AO2 SLP182 T01110056
 
KSMX - Santa Maria, California, USA
Distance from station: S 54mi, 87km
Updated: 04/17/2015 11:51pm
Clear
Clear
 Wind from calm
Wind: Calm
Temperature: 54°F , 12°C
Dew Point: 45°F , 7°C
Humidity: 72%
Barometer: 30.08 inHg , 1018.6 hPa
Clouds: Clear
Visibility: 9 miles , 14 km
2015/04/18 06:51 KSMX 180651Z AUTO 00000KT 9SM CLR 12/07 A3008 RMK AO2 SLP186 T01220072 TSNO
KNLC - Lemoore Nas/Reev, California, USA
Distance from station: NE 58mi, 94km
Updated: 04/17/2015 11:56pm
Clear
Clear
 Wind from W
Wind: W 7 mph , 11 km/h
Temperature: 57°F , 14°C
Dew Point: 25°F , -4°C
Humidity: 29%
Barometer: 30.01 inHg , 1016.3 hPa
Clouds: Clear
Visibility: 10 miles , 16 km
2015/04/18 06:56 KNLC 180656Z AUTO 26006KT 10SM CLR 14/M04 A3001 RMK AO2 SLP163 T01441039 $
 
KVBG - Vandenberg Afb, California, USA
Distance from station: S 65mi, 105km
Updated: 04/17/2015 11:58pm
Clear
Clear
 Wind from NNE
Wind: NNE 3 mph , 6 km/h
Temperature: 50°F , 10°C
Dew Point: 48°F , 9°C
Humidity: 94%
Barometer: 30.07 inHg , 1018.3 hPa
Clouds: Clear
Visibility: 10 miles , 16 km
2015/04/18 06:58 KVBG 180658Z AUTO 02003KT 10SM CLR 10/09 A3007 RMK AO2 SLP185 T00950085 TSNO $
KLPC - Lompoc, California, USA
Distance from station: S 70mi, 113km
Updated: 04/17/2015 11:55pm
Few Clouds
Few Clouds
 Wind from calm
Wind: Calm
Temperature: 48°F , 9°C
Dew Point: 39°F , 4°C
Humidity: 71%
Barometer: 30.08 inHg , 1018.6 hPa
Clouds: Few Clouds
Visibility: 10 miles , 16 km
Cloud details: Few Clouds 700 ft
2015/04/18 06:55 KLPC 180655Z AUTO 00000KT 10SM FEW007 09/04 A3008 RMK AO1
 
KHJO - Hanford, California, USA
Distance from station: NE 72mi, 116km
Updated: 04/17/2015 11:53pm
Clear
Clear
 Wind from NW
Wind: NW 8 mph , 13 km/h
Temperature: 68°F , 20°C
Dew Point: 36°F , 2°C
Humidity: 30%
Barometer: 30.01 inHg , 1016.3 hPa
Clouds: Clear
Visibility: 10 miles , 16 km
2015/04/18 06:53 KHJO 180653Z AUTO 32007KT 10SM CLR 20/02 A3001 RMK AO2 SLP162 T02000022